Time;durP1;ratioP1;P1;durP2;ratioP2;P2;SDS_P1;SDS_P2;PMS_P1;PMS_P2;Temp;Humidity;BMP_temperature;BMP_pressure;BME280_temperature;BME280_humidity;BME280_pressure;Samples;Min_cycle;Max_cycle;Signal;HPM_P1;HPM_P2
2022/06/15 00:00:02;;;;;;;0.20;0.20;;;18.40;99.90;;;;;;5047209;28;20232;-83
2022/06/15 00:02:27;;;;;;;0.17;0.17;;;18.30;99.90;;;;;;5043340;28;20549;-84
2022/06/15 00:04:53;;;;;;;0.10;0.10;;;18.20;99.90;;;;;;5041625;28;20192;-84
2022/06/15 00:07:18;;;;;;;0.20;0.20;;;18.30;99.90;;;;;;5040534;28;20205;-84
2022/06/15 00:09:44;;;;;;;0.30;0.30;;;18.30;99.90;;;;;;5045971;28;20237;-84
2022/06/15 00:12:10;;;;;;;0.10;0.10;;;18.30;99.90;;;;;;5047915;28;20190;-84
2022/06/15 00:14:35;;;;;;;0.17;0.17;;;18.30;99.90;;;;;;5043651;28;20235;-83
2022/06/15 00:17:01;;;;;;;0.13;0.13;;;18.30;99.90;;;;;;5043672;28;20292;-83
2022/06/15 00:19:26;;;;;;;0.10;0.10;;;18.30;99.90;;;;;;5045149;28;20341;-84
2022/06/15 00:21:52;;;;;;;0.10;0.10;;;18.20;99.90;;;;;;5047309;28;20197;-83
2022/06/15 00:24:17;;;;;;;3.30;0.43;;;18.20;99.90;;;;;;5047286;28;20548;-85
2022/06/15 00:26:43;;;;;;;0.20;0.20;;;18.20;99.90;;;;;;5046846;28;20211;-84
2022/06/15 00:29:10;;;;;;;0.20;0.20;;;18.30;99.90;;;;;;5048668;28;20242;-84
2022/06/15 00:31:35;;;;;;;0.10;0.10;;;18.30;99.90;;;;;;5043517;28;20177;-84
2022/06/15 00:34:01;;;;;;;0.10;0.10;;;18.30;99.90;;;;;;5046463;28;20235;-84
2022/06/15 00:36:27;;;;;;;0.20;0.20;;;18.30;99.90;;;;;;5045135;28;20213;-85
2022/06/15 00:38:55;;;;;;;0.10;0.10;;;18.10;99.90;;;;;;5041507;28;20192;-84
2022/06/15 00:41:24;;;;;;;0.30;0.30;;;18.00;99.90;;;;;;5046993;28;20259;-84
2022/06/15 00:44:19;;;;;;;0.20;0.20;;;18.10;99.90;;;;;;5044566;28;20179;-84
2022/06/15 00:46:48;;;;;;;1.53;0.40;;;18.00;99.90;;;;;;5044801;28;21450;-84
2022/06/15 00:49:17;;;;;;;0.20;0.20;;;18.00;99.90;;;;;;5045684;28;20723;-83
2022/06/15 00:51:44;;;;;;;0.30;0.30;;;18.00;99.90;;;;;;5046418;28;20288;-84
2022/06/15 00:54:10;;;;;;;0.20;0.20;;;17.90;99.90;;;;;;5045348;28;20193;-84
2022/06/15 00:56:38;;;;;;;0.40;0.33;;;17.90;99.90;;;;;;5045519;28;20499;-83
2022/06/15 00:59:09;;;;;;;2.30;0.40;;;17.80;99.90;;;;;;5044631;28;20605;-85
2022/06/15 01:01:35;;;;;;;0.30;0.30;;;17.80;99.90;;;;;;5043461;28;21084;-85
2022/06/15 01:04:03;;;;;;;0.10;0.10;;;17.70;99.90;;;;;;5044299;28;20193;-84
2022/06/15 01:06:48;;;;;;;0.50;0.50;;;17.70;99.90;;;;;;5045252;28;20239;-84
2022/06/15 01:09:26;;;;;;;0.20;0.20;;;17.60;99.90;;;;;;5045166;28;20651;-83
2022/06/15 01:12:06;;;;;;;0.20;0.20;;;17.60;99.90;;;;;;5046578;28;20186;-84
2022/06/15 01:15:01;;;;;;;0.20;0.20;;;17.50;99.90;;;;;;5044152;28;20216;-84
2022/06/15 01:17:46;;;;;;;0.10;0.10;;;17.50;99.90;;;;;;5042992;28;20207;-84
2022/06/15 01:20:30;;;;;;;0.27;0.27;;;17.40;99.90;;;;;;5044197;28;21002;-83
2022/06/15 01:23:11;;;;;;;0.30;0.30;;;17.40;99.90;;;;;;5044574;28;20209;-84
2022/06/15 01:25:45;;;;;;;0.93;0.47;;;17.40;99.90;;;;;;5044872;28;20194;-85
2022/06/15 01:28:17;;;;;;;2.13;1.60;;;17.30;99.90;;;;;;5044859;28;20193;-84
2022/06/15 01:30:55;;;;;;;0.20;0.20;;;17.20;99.90;;;;;;5043894;28;20213;-84
2022/06/15 01:33:45;;;;;;;0.13;0.13;;;17.10;99.90;;;;;;5061051;28;20197;-84
2022/06/15 01:36:35;;;;;;;2.33;0.37;;;17.00;99.90;;;;;;5044811;28;20337;-84
2022/06/15 01:39:09;;;;;;;0.60;0.30;;;16.80;99.90;;;;;;5046146;28;20181;-84
2022/06/15 01:41:52;;;;;;;0.33;0.33;;;16.70;99.90;;;;;;5045981;28;20185;-85
2022/06/15 01:44:35;;;;;;;0.70;0.27;;;16.60;99.90;;;;;;5044272;28;20189;-84
2022/06/15 01:47:05;;;;;;;0.13;0.13;;;16.50;99.90;;;;;;5044975;28;20575;-84
2022/06/15 01:49:36;;;;;;;0.20;0.20;;;16.40;99.90;;;;;;5039971;28;20209;-84
2022/06/15 01:52:04;;;;;;;0.10;0.10;;;16.40;99.90;;;;;;5043471;28;20190;-84
2022/06/15 01:54:37;;;;;;;0.30;0.30;;;16.30;99.90;;;;;;5044491;28;20239;-83
2022/06/15 01:57:05;;;;;;;0.10;0.10;;;16.30;99.90;;;;;;5045122;28;20205;-85
2022/06/15 01:59:53;;;;;;;0.10;0.10;;;16.40;99.90;;;;;;5044304;28;20247;-85
2022/06/15 02:02:32;;;;;;;0.20;0.20;;;16.40;99.90;;;;;;5046218;28;20217;-84
2022/06/15 02:05:08;;;;;;;0.10;0.10;;;16.50;99.90;;;;;;5044376;28;20305;-84
2022/06/15 02:07:56;;;;;;;0.20;0.20;;;16.60;99.90;;;;;;5041177;28;20193;-84
2022/06/15 02:10:46;;;;;;;0.40;0.40;;;16.60;99.90;;;;;;5044195;28;20623;-84
2022/06/15 02:13:18;;;;;;;0.70;0.70;;;16.50;99.90;;;;;;5045043;28;20182;-84
2022/06/15 02:15:48;;;;;;;0.17;0.17;;;16.40;99.90;;;;;;5044641;28;20283;-85
2022/06/15 02:18:18;;;;;;;0.20;0.20;;;16.40;99.90;;;;;;5045221;28;20259;-84
2022/06/15 02:20:49;;;;;;;0.30;0.30;;;16.30;99.90;;;;;;5040881;28;20200;-84
2022/06/15 02:23:16;;;;;;;0.20;0.20;;;16.40;99.90;;;;;;5043577;28;20194;-85
2022/06/15 02:25:44;;;;;;;0.10;0.10;;;16.40;99.90;;;;;;5043975;28;20256;-84
2022/06/15 02:28:11;;;;;;;0.13;0.13;;;16.40;99.90;;;;;;5041776;28;20221;-83
2022/06/15 02:30:37;;;;;;;0.20;0.20;;;16.40;99.90;;;;;;5043322;28;20292;-84
2022/06/15 02:33:23;;;;;;;0.70;0.27;;;16.30;99.90;;;;;;5045812;28;20316;-84
2022/06/15 02:35:49;;;;;;;0.10;0.10;;;16.40;99.90;;;;;;5042488;28;20216;-83
2022/06/15 02:38:14;;;;;;;0.10;0.10;;;16.40;99.90;;;;;;5042345;28;20181;-84
2022/06/15 02:40:40;;;;;;;0.23;0.23;;;16.40;99.90;;;;;;5045342;28;20686;-83
2022/06/15 02:43:07;;;;;;;0.20;0.20;;;16.40;99.90;;;;;;5043751;28;20229;-84
2022/06/15 02:45:36;;;;;;;0.20;0.20;;;16.40;99.90;;;;;;5036751;28;20213;-84
2022/06/15 02:48:04;;;;;;;0.20;0.20;;;16.20;99.90;;;;;;5043716;28;20719;-84
2022/06/15 02:50:37;;;;;;;0.10;0.10;;;16.20;99.90;;;;;;5043926;28;20220;-83
2022/06/15 02:53:07;;;;;;;0.83;0.83;;;16.20;99.90;;;;;;5043701;28;20177;-84
2022/06/15 02:55:35;;;;;;;0.10;0.10;;;16.10;99.90;;;;;;5044957;28;20212;-84
2022/06/15 02:58:05;;;;;;;0.40;0.40;;;16.10;99.90;;;;;;5043313;28;20185;-84
2022/06/15 03:00:30;;;;;;;0.10;0.10;;;16.10;99.90;;;;;;5044860;28;21091;-84
2022/06/15 03:02:56;;;;;;;0.20;0.20;;;16.10;99.90;;;;;;5044457;28;20190;-85
2022/06/15 03:05:21;;;;;;;0.20;0.20;;;16.10;99.90;;;;;;5042782;28;20205;-84
2022/06/15 03:07:47;;;;;;;0.20;0.20;;;16.10;99.90;;;;;;5042649;28;20411;-83
2022/06/15 03:10:12;;;;;;;0.30;0.30;;;15.90;99.90;;;;;;5038481;28;20701;-83
2022/06/15 03:12:38;;;;;;;0.47;0.20;;;15.90;99.90;;;;;;5044920;28;20186;-84
2022/06/15 03:15:04;;;;;;;0.30;0.30;;;16.10;99.90;;;;;;5047269;28;20249;-84
2022/06/15 03:17:29;;;;;;;0.10;0.10;;;16.20;99.90;;;;;;5047912;28;20200;-84
2022/06/15 03:19:55;;;;;;;0.30;0.30;;;16.30;99.90;;;;;;5048887;28;20290;-85
2022/06/15 03:22:21;;;;;;;0.40;0.20;;;16.40;99.90;;;;;;5046330;28;20194;-85
2022/06/15 03:24:46;;;;;;;0.23;0.23;;;16.50;99.90;;;;;;5042278;28;20205;-85
2022/06/15 03:27:12;;;;;;;0.20;0.20;;;16.60;99.90;;;;;;5045608;28;20217;-84
2022/06/15 03:29:37;;;;;;;0.10;0.10;;;16.50;99.90;;;;;;5045947;28;20263;-84
2022/06/15 03:32:04;;;;;;;0.20;0.20;;;16.60;99.90;;;;;;5043908;28;20240;-84
2022/06/15 03:34:30;;;;;;;0.20;0.20;;;16.70;99.90;;;;;;5042594;28;21112;-84
2022/06/15 03:36:56;;;;;;;0.33;0.30;;;16.80;99.90;;;;;;5047398;28;20197;-84
2022/06/15 03:39:22;;;;;;;0.20;0.20;;;17.60;99.90;;;;;;5045251;28;21118;-83
2022/06/15 03:41:48;;;;;;;0.30;0.30;;;18.10;99.90;;;;;;5046005;28;20190;-84
2022/06/15 03:44:13;;;;;;;0.40;0.40;;;18.80;99.90;;;;;;5049004;28;20235;-83
2022/06/15 03:46:39;;;;;;;0.23;0.23;;;19.30;99.90;;;;;;5047749;28;20217;-84
2022/06/15 03:49:04;;;;;;;0.30;0.20;;;19.70;99.90;;;;;;5048441;28;20784;-85
2022/06/15 03:51:30;;;;;;;0.10;0.10;;;20.60;99.90;;;;;;5047070;28;20191;-84
2022/06/15 03:53:55;;;;;;;0.40;0.40;;;20.90;99.90;;;;;;5046895;28;20186;-84
2022/06/15 03:56:21;;;;;;;0.83;0.67;;;21.00;99.90;;;;;;5047369;28;20206;-84
2022/06/15 03:58:46;;;;;;;0.30;0.30;;;21.40;99.90;;;;;;5048604;28;20201;-84
2022/06/15 04:01:12;;;;;;;0.30;0.30;;;22.20;99.90;;;;;;5046494;28;20217;-84
2022/06/15 04:03:38;;;;;;;0.40;0.40;;;22.90;99.90;;;;;;5040119;28;20202;-84
2022/06/15 04:06:04;;;;;;;0.30;0.30;;;23.60;99.90;;;;;;5042677;28;20295;-84
2022/06/15 04:08:39;;;;;;;0.27;0.27;;;24.20;99.90;;;;;;5045844;28;20205;-84
2022/06/15 04:14:00;;;;;;;0.20;0.20;;;25.00;99.90;;;;;;5046942;28;20204;-83
2022/06/15 04:16:25;;;;;;;0.20;0.20;;;25.50;99.90;;;;;;5044469;28;20221;-84
2022/06/15 04:18:51;;;;;;;0.33;0.30;;;25.80;99.90;;;;;;5046451;28;20190;-84
2022/06/15 04:21:16;;;;;;;0.20;0.20;;;26.30;99.90;;;;;;5043201;28;20193;-84
2022/06/15 04:23:42;;;;;;;0.30;0.30;;;26.50;99.90;;;;;;5042419;28;20268;-83
2022/06/15 04:26:09;;;;;;;0.13;0.13;;;26.30;99.90;;;;;;5044188;28;20600;-84
2022/06/15 04:28:39;;;;;;;0.60;0.60;;;25.20;99.90;;;;;;5047392;28;20284;-83
2022/06/15 04:31:05;;;;;;;0.77;0.50;;;23.50;99.90;;;;;;5044361;28;20185;-84
2022/06/15 04:33:30;;;;;;;0.57;0.40;;;23.00;99.90;;;;;;5048387;28;20177;-83
2022/06/15 04:35:56;;;;;;;0.47;0.47;;;22.60;99.90;;;;;;5044088;28;20694;-83
2022/06/15 04:38:22;;;;;;;0.30;0.30;;;22.30;99.90;;;;;;5062861;28;20181;-82
2022/06/15 04:40:47;;;;;;;0.50;0.50;;;22.10;99.90;;;;;;5044243;28;20190;-83
2022/06/15 04:43:13;;;;;;;0.20;0.20;;;21.80;99.90;;;;;;5050837;28;20194;-83
2022/06/15 04:45:39;;;;;;;0.40;0.40;;;21.50;99.90;;;;;;5050433;28;20202;-83
2022/06/15 04:48:05;;;;;;;0.30;0.30;;;21.30;99.90;;;;;;5048204;28;20217;-83
2022/06/15 04:50:31;;;;;;;0.33;0.33;;;20.70;99.90;;;;;;5045530;28;20232;-84
2022/06/15 04:52:57;;;;;;;0.20;0.20;;;20.20;99.90;;;;;;5047777;28;20565;-84
2022/06/15 04:55:24;;;;;;;0.30;0.30;;;19.70;99.90;;;;;;5044997;28;20221;-85
2022/06/15 04:57:54;;;;;;;0.40;0.40;;;19.50;99.90;;;;;;5043096;28;20185;-84
2022/06/15 05:00:21;;;;;;;0.40;0.40;;;19.40;99.90;;;;;;5042482;28;20193;-86
2022/06/15 05:02:47;;;;;;;0.23;0.23;;;18.70;99.90;;;;;;5043366;28;20701;-83
2022/06/15 05:05:13;;;;;;;0.30;0.30;;;18.60;99.90;;;;;;5061775;28;20307;-84
2022/06/15 05:07:39;;;;;;;1.37;0.37;;;18.60;99.90;;;;;;5042599;28;20562;-85
2022/06/15 05:10:05;;;;;;;0.37;0.37;;;18.50;99.90;;;;;;5046036;28;20202;-84
2022/06/15 05:12:31;;;;;;;0.40;0.40;;;18.50;99.90;;;;;;5044613;28;20186;-83
2022/06/15 05:14:57;;;;;;;0.33;0.33;;;18.80;99.90;;;;;;5045822;28;20189;-84
2022/06/15 05:17:24;;;;;;;0.20;0.20;;;18.90;99.90;;;;;;5043444;28;20189;-84
2022/06/15 05:19:50;;;;;;;0.20;0.20;;;19.00;99.90;;;;;;5063561;28;20659;-84
2022/06/15 05:22:15;;;;;;;0.20;0.20;;;18.90;99.90;;;;;;5045898;28;20193;-83
2022/06/15 05:24:41;;;;;;;0.83;0.40;;;19.00;99.90;;;;;;5041931;28;20212;-85
2022/06/15 05:27:08;;;;;;;0.40;0.40;;;19.00;99.90;;;;;;5043012;28;20201;-84
2022/06/15 05:29:37;;;;;;;0.50;0.40;;;19.10;99.90;;;;;;5047139;28;20221;-84
2022/06/15 05:32:05;;;;;;;3.77;0.50;;;19.10;99.90;;;;;;5046841;28;20260;-84
2022/06/15 05:34:31;;;;;;;0.13;0.13;;;19.00;99.90;;;;;;5043333;28;20186;-84
2022/06/15 05:36:57;;;;;;;0.40;0.40;;;19.10;99.90;;;;;;5046640;28;21144;-84
2022/06/15 05:39:22;;;;;;;0.20;0.20;;;19.20;99.90;;;;;;5046171;28;20189;-84
2022/06/15 05:41:51;;;;;;;0.40;0.30;;;19.30;99.90;;;;;;5041821;28;20192;-84
2022/06/15 05:47:12;;;;;;;0.27;0.27;;;19.80;99.90;;;;;;5047224;28;20207;-84
2022/06/15 05:49:37;;;;;;;0.40;0.40;;;19.80;99.90;;;;;;5045485;28;20208;-84
2022/06/15 05:52:03;;;;;;;0.30;0.30;;;19.70;99.90;;;;;;5045634;28;20186;-83
2022/06/15 05:54:29;;;;;;;0.30;0.30;;;19.80;99.90;;;;;;5045545;28;20207;-84
2022/06/15 05:56:54;;;;;;;2.13;1.53;;;19.80;99.90;;;;;;5044249;28;20208;-85
2022/06/15 05:59:20;;;;;;;0.27;0.27;;;20.00;99.90;;;;;;5045278;28;20205;-82
2022/06/15 06:01:45;;;;;;;0.20;0.20;;;20.10;99.90;;;;;;5041341;28;20283;-83
2022/06/15 06:04:18;;;;;;;0.53;0.53;;;20.20;99.90;;;;;;5045816;28;20204;-83
2022/06/15 06:06:44;;;;;;;0.40;0.40;;;20.10;99.90;;;;;;5046350;28;20200;-83
2022/06/15 06:09:10;;;;;;;0.63;0.43;;;20.10;99.90;;;;;;5047566;28;20713;-83
2022/06/15 06:11:36;;;;;;;0.20;0.20;;;20.40;99.90;;;;;;5046527;28;20174;-84
2022/06/15 06:14:02;;;;;;;0.43;0.30;;;20.60;99.90;;;;;;5042885;28;20242;-84
2022/06/15 06:16:28;;;;;;;0.30;0.30;;;21.00;99.90;;;;;;5045707;28;20729;-83
2022/06/15 06:18:54;;;;;;;0.20;0.20;;;21.00;99.90;;;;;;5046419;28;20194;-83
2022/06/15 06:21:20;;;;;;;0.57;0.33;;;21.00;99.90;;;;;;5048337;28;20235;-83
2022/06/15 06:23:46;;;;;;;0.40;0.40;;;21.00;99.90;;;;;;5047168;28;20189;-85
2022/06/15 06:26:22;;;;;;;0.30;0.30;;;21.00;99.90;;;;;;5042987;28;20262;-84
2022/06/15 06:28:48;;;;;;;0.30;0.30;;;21.30;99.90;;;;;;5045249;28;20193;-84
2022/06/15 06:31:14;;;;;;;0.30;0.30;;;21.20;99.90;;;;;;5036963;28;20200;-84
2022/06/15 06:33:39;;;;;;;0.30;0.30;;;21.40;99.90;;;;;;5034243;28;20178;-84
2022/06/15 06:36:38;;;;;;;0.37;0.37;;;21.70;99.90;;;;;;5043979;28;20205;-84
2022/06/15 06:39:12;;;;;;;0.33;0.33;;;21.30;99.90;;;;;;5038253;28;20267;-83
2022/06/15 06:41:37;;;;;;;0.50;0.50;;;21.20;99.90;;;;;;5040985;28;20276;-84
2022/06/15 06:44:04;;;;;;;0.37;0.37;;;21.30;99.90;;;;;;5041203;28;20288;-83
2022/06/15 06:46:31;;;;;;;0.30;0.30;;;21.60;99.90;;;;;;5043275;28;20237;-84
2022/06/15 06:48:58;;;;;;;0.40;0.40;;;22.00;99.90;;;;;;5045903;28;21501;-83
2022/06/15 06:51:23;;;;;;;0.33;0.33;;;22.20;99.90;;;;;;5046982;28;20192;-84
2022/06/15 06:53:49;;;;;;;1.43;0.70;;;22.30;99.90;;;;;;5046801;28;20189;-84
2022/06/15 06:56:15;;;;;;;0.30;0.30;;;22.10;99.90;;;;;;5048517;28;20216;-85
2022/06/15 06:58:40;;;;;;;0.50;0.50;;;22.10;99.90;;;;;;5046921;28;20204;-84
2022/06/15 07:01:06;;;;;;;0.47;0.40;;;22.10;99.90;;;;;;5044051;28;20677;-84
2022/06/15 07:03:31;;;;;;;0.37;0.37;;;22.50;99.90;;;;;;5047764;28;20186;-84
2022/06/15 07:06:03;;;;;;;0.50;0.50;;;22.20;99.90;;;;;;5048193;28;20241;-84
2022/06/15 07:08:29;;;;;;;0.30;0.30;;;22.30;99.90;;;;;;5046291;28;20524;-84
2022/06/15 07:10:55;;;;;;;0.60;0.53;;;22.50;99.90;;;;;;5044201;28;20216;-83
2022/06/15 07:13:21;;;;;;;0.40;0.40;;;22.30;99.90;;;;;;5047310;28;20190;-84
2022/06/15 07:15:47;;;;;;;0.50;0.50;;;22.30;99.90;;;;;;5045318;28;20286;-84
2022/06/15 07:18:12;;;;;;;0.30;0.30;;;22.30;99.90;;;;;;5042947;28;20194;-82
2022/06/15 07:20:38;;;;;;;1.60;0.63;;;22.30;99.90;;;;;;5039879;28;20691;-82
2022/06/15 07:23:03;;;;;;;1.47;0.47;;;22.50;99.90;;;;;;5043588;28;20342;-82
2022/06/15 07:25:30;;;;;;;0.53;0.53;;;22.80;99.90;;;;;;5048978;28;20224;-83
2022/06/15 07:27:56;;;;;;;0.40;0.40;;;23.00;99.90;;;;;;5045369;28;20278;-83
2022/06/15 07:30:23;;;;;;;0.53;0.53;;;23.40;99.90;;;;;;5044118;28;20221;-84
2022/06/15 07:32:49;;;;;;;3.73;0.90;;;22.90;99.90;;;;;;5044687;28;20658;-83
2022/06/15 07:35:24;;;;;;;2.83;0.40;;;22.80;99.90;;;;;;5042391;28;20216;-84
2022/06/15 07:37:51;;;;;;;0.60;0.60;;;22.80;99.90;;;;;;5047497;28;20654;-84
2022/06/15 07:40:20;;;;;;;0.30;0.30;;;23.10;99.90;;;;;;5046393;28;20206;-84
2022/06/15 07:42:47;;;;;;;0.47;0.47;;;23.30;99.90;;;;;;5046548;28;20217;-84
2022/06/15 07:45:14;;;;;;;0.50;0.50;;;23.70;99.90;;;;;;5047058;28;20243;-84
2022/06/15 07:50:24;;;;;;;3.50;0.50;;;24.00;99.90;;;;;;5047436;28;20220;-84
2022/06/15 07:52:51;;;;;;;0.60;0.60;;;24.50;99.90;;;;;;5046906;28;20190;-84
2022/06/15 07:55:22;;;;;;;0.77;0.77;;;24.60;99.90;;;;;;5046692;28;20216;-84
2022/06/15 07:57:48;;;;;;;0.40;0.40;;;24.60;99.90;;;;;;5047209;28;20725;-84
2022/06/15 08:00:15;;;;;;;1.93;0.60;;;24.60;99.90;;;;;;5048065;28;20236;-84
2022/06/15 08:02:40;;;;;;;0.83;0.83;;;24.50;99.90;;;;;;5045672;28;20225;-84
2022/06/15 08:05:07;;;;;;;0.50;0.50;;;24.30;99.90;;;;;;5045705;28;20729;-83
2022/06/15 08:07:34;;;;;;;0.63;0.63;;;24.30;99.90;;;;;;5037643;28;20331;-83
2022/06/15 08:09:59;;;;;;;0.57;0.40;;;24.60;99.90;;;;;;5041846;28;20244;-84
2022/06/15 08:12:25;;;;;;;0.53;0.53;;;25.10;99.90;;;;;;5043990;28;20234;-84
2022/06/15 08:14:55;;;;;;;0.47;0.47;;;25.30;99.90;;;;;;5045655;28;20227;-84
2022/06/15 08:17:26;;;;;;;0.37;0.37;;;25.50;99.90;;;;;;5045411;28;20724;-84
2022/06/15 08:19:59;;;;;;;0.50;0.50;;;25.30;99.90;;;;;;5048984;28;20174;-84
2022/06/15 08:22:25;;;;;;;1.27;0.93;;;25.30;99.90;;;;;;5047858;28;20681;-84
2022/06/15 08:24:51;;;;;;;1.03;0.60;;;25.00;99.90;;;;;;5048899;28;20535;-83
2022/06/15 08:27:20;;;;;;;0.73;0.50;;;25.50;99.90;;;;;;5047104;28;20217;-84
2022/06/15 08:29:47;;;;;;;0.60;0.60;;;25.70;99.90;;;;;;5045587;28;20210;-84
2022/06/15 08:32:14;;;;;;;0.60;0.60;;;26.00;99.90;;;;;;5047466;28;20206;-83
2022/06/15 08:34:40;;;;;;;0.83;0.83;;;25.90;99.90;;;;;;5044312;28;20178;-82
2022/06/15 08:37:08;;;;;;;0.33;0.33;;;25.80;99.90;;;;;;5047035;28;20221;-83
2022/06/15 08:39:34;;;;;;;0.47;0.27;;;26.10;99.90;;;;;;5045935;28;20185;-82
2022/06/15 08:42:30;;;;;;;0.20;0.20;;;26.10;99.90;;;;;;5046820;28;20185;-82
2022/06/15 08:45:18;;;;;;;0.90;0.35;;;26.40;99.90;;;;;;5042545;28;20202;-82
2022/06/15 08:48:18;;;;;;;0.60;0.57;;;26.00;99.90;;;;;;5044315;28;20215;-82
2022/06/15 08:51:01;;;;;;;0.55;0.50;;;26.20;99.90;;;;;;5045966;28;20198;-82
2022/06/15 08:53:36;;;;;;;0.90;0.90;;;26.50;99.90;;;;;;5045194;28;20182;-82
2022/06/15 08:56:10;;;;;;;0.70;0.70;;;26.00;99.90;;;;;;5044511;28;20824;-83
2022/06/15 08:58:50;;;;;;;0.40;0.40;;;26.10;99.90;;;;;;5045693;28;20189;-83
2022/06/15 09:01:19;;;;;;;0.60;0.60;;;26.30;99.90;;;;;;5041471;28;20182;-82
2022/06/15 09:04:18;;;;;;;0.60;0.50;;;26.20;99.90;;;;;;5045171;28;20292;-82
2022/06/15 09:07:16;;;;;;;0.37;0.37;;;26.60;99.90;;;;;;5044669;28;20211;-84
2022/06/15 09:10:18;;;;;;;0.50;0.50;;;26.80;99.90;;;;;;5043984;28;20209;-83
2022/06/15 09:12:59;;;;;;;0.40;0.40;;;26.50;99.90;;;;;;5043818;28;20196;-83
2022/06/15 09:15:37;;;;;;;0.30;0.30;;;26.80;99.90;;;;;;5039898;28;20216;-83
2022/06/15 09:18:28;;;;;;;1.03;0.50;;;26.40;99.90;;;;;;5044435;28;20267;-83
2022/06/15 09:21:14;;;;;;;0.73;0.53;;;25.90;99.90;;;;;;5044110;28;20221;-83
2022/06/15 09:23:54;;;;;;;1.40;0.60;;;26.30;99.90;;;;;;5047006;28;20189;-83
2022/06/15 09:26:34;;;;;;;0.70;0.70;;;26.70;99.90;;;;;;5037999;28;20229;-83
2022/06/15 09:29:05;;;;;;;0.33;0.33;;;26.80;99.90;;;;;;5046100;28;20268;-83
2022/06/15 09:31:41;;;;;;;0.55;0.55;;;27.30;99.90;;;;;;5043425;28;20268;-84
2022/06/15 09:34:09;;;;;;;1.50;0.45;;;27.30;99.90;;;;;;5044962;28;20188;-83
2022/06/15 09:36:47;;;;;;;0.70;0.70;;;27.70;99.90;;;;;;5045730;28;20212;-83
2022/06/15 09:39:13;;;;;;;1.23;1.15;;;28.10;99.90;;;;;;5044364;28;20211;-84
2022/06/15 09:42:10;;;;;;;0.65;0.65;;;28.10;99.90;;;;;;5040094;28;20194;-83
2022/06/15 09:44:59;;;;;;;0.40;0.40;;;28.20;99.90;;;;;;5043158;28;20190;-84
2022/06/15 09:47:33;;;;;;;0.40;0.40;;;28.10;99.90;;;;;;5043610;28;20265;-84
2022/06/15 09:50:08;;;;;;;0.30;0.30;;;28.50;99.90;;;;;;5042669;28;20204;-84
2022/06/15 09:52:40;;;;;;;0.70;0.70;;;28.60;99.90;;;;;;5042319;28;20640;-84
2022/06/15 09:55:13;;;;;;;1.13;1.13;;;28.30;99.90;;;;;;5043556;28;20524;-83
2022/06/15 09:57:40;;;;;;;0.90;0.90;;;28.10;99.90;;;;;;5044815;28;20190;-84
2022/06/15 10:00:09;;;;;;;1.13;0.90;;;27.20;99.90;;;;;;5043517;28;20245;-83
2022/06/15 10:02:38;;;;;;;0.30;0.30;;;27.20;99.90;;;;;;5043231;28;20192;-84
2022/06/15 10:05:07;;;;;;;1.05;0.52;;;27.80;99.90;;;;;;5043045;28;20189;-84
2022/06/15 10:07:41;;;;;;;0.52;0.52;;;27.90;99.90;;;;;;5041651;28;20556;-84
2022/06/15 10:10:22;;;;;;;2.72;0.80;;;28.10;99.90;;;;;;5045106;28;20232;-84
2022/06/15 10:13:02;;;;;;;0.82;0.82;;;27.60;99.90;;;;;;5042019;28;20174;-83
2022/06/15 10:15:32;;;;;;;0.73;0.60;;;27.30;99.90;;;;;;5042363;28;20288;-84
2022/06/15 10:18:14;;;;;;;0.43;0.43;;;27.40;99.90;;;;;;5045090;28;20602;-83
2022/06/15 10:20:41;;;;;;;1.08;0.80;;;27.60;99.90;;;;;;5060104;28;20211;-84
2022/06/15 10:23:20;;;;;;;0.77;0.60;;;27.30;99.90;;;;;;5044776;28;20836;-83
2022/06/15 10:25:55;;;;;;;1.30;1.20;;;27.70;99.90;;;;;;5042737;28;20209;-84
2022/06/15 10:28:25;;;;;;;0.47;0.43;;;27.60;99.90;;;;;;5061727;28;21075;-84
2022/06/15 10:31:01;;;;;;;1.15;0.90;;;28.00;99.90;;;;;;5043545;28;20228;-84
2022/06/15 10:33:40;;;;;;;0.63;0.50;;;28.20;99.90;;;;;;5041518;28;20177;-84
2022/06/15 10:36:16;;;;;;;1.10;0.68;;;28.70;99.90;;;;;;5040890;28;20209;-83
2022/06/15 10:38:45;;;;;;;0.60;0.60;;;28.80;99.90;;;;;;5044364;28;20181;-84
2022/06/15 10:42:11;;;;;;;0.57;0.57;;;28.60;99.90;;;;;;5043426;28;20804;-83
2022/06/15 10:44:05;;;;;;;0.93;0.77;;;28.80;99.90;;;;;;5031996;28;20709;-84
2022/06/15 10:46:52;;;;;;;0.38;0.35;;;29.10;99.90;;;;;;5035644;28;20205;-83
2022/06/15 10:49:19;;;;;;;0.40;0.40;;;29.20;99.90;;;;;;5043869;28;20278;-83
2022/06/15 10:51:44;;;;;;;0.63;0.63;;;29.60;99.90;;;;;;5042998;28;20315;-84
2022/06/15 10:54:33;;;;;;;1.02;1.00;;;29.00;99.90;;;;;;5039224;28;20273;-84
2022/06/15 11:03:07;;;;;;;0.43;0.43;;;29.60;99.90;;;;;;5043947;28;20208;-84
2022/06/15 11:05:33;;;;;;;0.30;0.30;;;29.90;99.90;;;;;;5038001;28;20305;-84
2022/06/15 11:08:21;;;;;;;0.57;0.50;;;29.90;99.90;;;;;;5043286;28;20627;-84
2022/06/15 11:10:50;;;;;;;0.45;0.40;;;30.20;99.90;;;;;;5039957;28;20218;-83
2022/06/15 11:13:34;;;;;;;0.88;0.70;;;30.50;99.90;;;;;;5045662;28;20253;-84
2022/06/15 11:19:08;;;;;;;0.55;0.55;;;30.70;99.90;;;;;;5046327;28;20268;-83
2022/06/15 11:21:41;;;;;;;0.50;0.50;;;30.80;99.90;;;;;;5045291;28;20185;-83
2022/06/15 11:24:30;;;;;;;0.35;0.35;;;30.40;99.90;;;;;;5046699;28;20189;-84
2022/06/15 11:27:05;;;;;;;0.47;0.30;;;30.30;99.90;;;;;;5047188;28;20217;-84
2022/06/15 11:29:49;;;;;;;0.70;0.70;;;30.10;99.90;;;;;;5049390;28;20208;-83
2022/06/15 11:32:34;;;;;;;0.60;0.60;;;30.00;99.90;;;;;;5047249;28;20178;-83
2022/06/15 11:35:12;;;;;;;0.30;0.30;;;30.10;99.90;;;;;;5050928;28;20203;-84
2022/06/15 11:37:53;;;;;;;3.15;0.73;;;30.20;99.90;;;;;;5046069;28;20186;-83
2022/06/15 11:40:43;;;;;;;0.40;0.40;;;30.10;99.90;;;;;;5041697;28;20197;-82
2022/06/15 11:43:20;;;;;;;0.75;0.70;;;30.60;99.90;;;;;;5047132;28;20229;-83
2022/06/15 11:45:57;;;;;;;0.70;0.70;;;30.50;99.90;;;;;;5046786;28;20197;-82
2022/06/15 11:48:59;;;;;;;0.50;0.50;;;29.60;99.90;;;;;;5047324;28;20185;-82
2022/06/15 11:51:39;;;;;;;0.47;0.47;;;29.60;99.90;;;;;;5044424;28;20577;-82
2022/06/15 11:54:46;;;;;;;0.40;0.40;;;30.00;99.90;;;;;;5045247;28;20190;-82
2022/06/15 11:57:48;;;;;;;0.63;0.40;;;30.30;99.90;;;;;;5042088;28;20236;-82
2022/06/15 12:00:48;;;;;;;0.60;0.60;;;30.00;99.90;;;;;;5045234;28;20177;-82
2022/06/15 12:03:29;;;;;;;1.30;0.90;;;29.60;99.90;;;;;;5047090;28;20189;-82
2022/06/15 12:06:14;;;;;;;0.52;0.50;;;29.80;99.90;;;;;;5046621;28;20678;-82
2022/06/15 12:09:12;;;;;;;0.73;0.70;;;29.40;99.90;;;;;;5042884;28;20206;-82
2022/06/15 12:14:59;;;;;;;2.85;0.73;;;30.00;99.90;;;;;;5044809;28;20309;-82
2022/06/15 12:17:35;;;;;;;0.77;0.77;;;30.50;99.90;;;;;;5046303;28;20201;-81
2022/06/15 12:20:30;;;;;;;1.85;1.00;;;30.20;99.90;;;;;;5043139;28;20170;-82
2022/06/15 12:23:14;;;;;;;0.40;0.40;;;29.90;99.90;;;;;;5046796;28;20213;-82
2022/06/15 12:26:18;;;;;;;0.73;0.73;;;29.80;99.90;;;;;;5047115;28;20223;-82
2022/06/15 12:29:06;;;;;;;0.60;0.60;;;29.30;99.90;;;;;;5045004;28;20197;-84
2022/06/15 12:32:34;;;;;;;0.52;0.47;;;29.70;99.90;;;;;;5046444;28;20184;-85
2022/06/15 12:35:32;;;;;;;0.32;0.32;;;29.90;99.90;;;;;;4989073;28;20217;-84
2022/06/15 12:38:16;;;;;;;0.85;0.50;;;30.00;99.90;;;;;;5046243;28;20193;-83
2022/06/15 12:41:07;;;;;;;0.50;0.50;;;30.40;99.90;;;;;;5046129;28;20190;-83
2022/06/15 12:43:39;;;;;;;0.30;0.30;;;30.90;99.90;;;;;;5046094;28;20651;-83
2022/06/15 12:46:14;;;;;;;0.80;0.80;;;30.80;99.90;;;;;;5044297;28;20224;-83
2022/06/15 12:49:18;;;;;;;7.05;1.05;;;30.60;99.90;;;;;;5043862;28;20204;-81
2022/06/15 12:52:06;;;;;;;0.75;0.75;;;30.10;99.90;;;;;;5031293;28;20193;-83
2022/06/15 12:54:34;;;;;;;0.63;0.63;;;29.80;99.90;;;;;;5045775;28;20205;-83
2022/06/15 12:57:07;;;;;;;0.60;0.60;;;30.00;99.90;;;;;;5044375;28;20201;-83
2022/06/15 12:59:54;;;;;;;0.60;0.60;;;29.20;99.90;;;;;;5045142;28;20182;-83
2022/06/15 13:02:33;;;;;;;0.77;0.55;;;29.60;99.90;;;;;;5045938;28;20189;-82
2022/06/15 13:05:02;;;;;;;0.40;0.40;;;30.40;99.90;;;;;;5038352;28;20632;-83
2022/06/15 13:07:31;;;;;;;0.68;0.68;;;31.00;99.90;;;;;;5042421;28;20228;-82
2022/06/15 13:10:25;;;;;;;0.88;0.88;;;31.20;99.90;;;;;;5045741;28;20578;-83
2022/06/15 13:13:01;;;;;;;0.52;0.52;;;30.90;99.90;;;;;;5042094;28;21009;-83
2022/06/15 13:15:54;;;;;;;0.50;0.50;;;30.30;99.90;;;;;;5047493;28;20200;-82
2022/06/15 13:18:39;;;;;;;0.57;0.57;;;30.90;99.90;;;;;;5044131;28;20182;-83
2022/06/15 13:21:06;;;;;;;1.50;0.45;;;31.40;99.90;;;;;;5043521;28;20551;-82
2022/06/15 13:23:45;;;;;;;0.63;0.60;;;31.00;99.90;;;;;;5041364;28;20188;-83
2022/06/15 13:26:15;;;;;;;0.68;0.50;;;31.00;99.90;;;;;;5046037;28;20678;-83
2022/06/15 13:28:45;;;;;;;1.45;1.35;;;30.80;99.90;;;;;;5040359;28;20194;-83
2022/06/15 13:31:25;;;;;;;1.27;1.17;;;31.30;99.90;;;;;;5045746;28;20674;-83
2022/06/15 13:33:55;;;;;;;0.30;0.30;;;31.20;99.90;;;;;;5026150;28;20189;-83
2022/06/15 13:36:23;;;;;;;0.45;0.45;;;31.60;99.90;;;;;;5044771;28;20198;-83